FDX1022 KBGR-KEWR
Flight info
| Callsign | FDX1022 |
|---|---|
| Flight time | 1h 5m |
| Altitude | 32000 |
| Route | BGR5 DUNNS DCT BEVDE DCT HANAA FLOSI4 |
| Aircraft | MD11/H-SDE1E2E3FGHIJ2J3J4J5M1RWXY/LB1D1 |
Departure
| Time | 2026-04-24 23:57 |
|---|---|
| Airport | Bangor International Airport (KBGR) |
Arrival
| Time | 2026-04-25 01:03 |
|---|---|
| Airport | Newark Liberty International Airport (KEWR) |
| Time | Latitude | Longitude | Altitude | Speed | Heading |
|---|---|---|---|---|---|
| 2026-04-24 23:38 | 44.81102 | -68.82240 | 173 ft | 0 kts | 314° |
| 2026-04-24 23:52 | 44.81105 | -68.82245 | 173 ft | 5 kts | 310° |
| 2026-04-24 23:52 | 44.81084 | -68.82365 | 175 ft | 17 kts | 232° |
| 2026-04-24 23:52 | 44.81002 | -68.82480 | 176 ft | 13 kts | 218° |
| 2026-04-24 23:53 | 44.80906 | -68.82443 | 173 ft | 18 kts | 138° |
| 2026-04-24 23:53 | 44.80800 | -68.82296 | 168 ft | 24 kts | 134° |
| 2026-04-24 23:53 | 44.80671 | -68.82104 | 163 ft | 29 kts | 133° |
| 2026-04-24 23:53 | 44.80515 | -68.81878 | 157 ft | 34 kts | 134° |
| 2026-04-24 23:54 | 44.80375 | -68.81677 | 156 ft | 26 kts | 134° |
| 2026-04-24 23:54 | 44.80236 | -68.81476 | 156 ft | 30 kts | 134° |
| 2026-04-24 23:54 | 44.80085 | -68.81257 | 158 ft | 32 kts | 134° |
| 2026-04-24 23:54 | 44.79946 | -68.81059 | 159 ft | 24 kts | 135° |
| 2026-04-24 23:55 | 44.79823 | -68.81041 | 157 ft | 20 kts | 215° |
| 2026-04-24 23:55 | 44.79775 | -68.81099 | 158 ft | 0 kts | 224° |
| 2026-04-24 23:56 | 44.79751 | -68.81133 | 159 ft | 21 kts | 228° |
| 2026-04-24 23:57 | 44.79877 | -68.81544 | 162 ft | 87 kts | 321° |
| 2026-04-24 23:57 | 44.80404 | -68.82297 | 166 ft | 139 kts | 314° |
| 2026-04-24 23:57 | 44.81193 | -68.83405 | 449 ft | 172 kts | 320° |
| 2026-04-24 23:57 | 44.82104 | -68.84514 | 1278 ft | 182 kts | 326° |
| 2026-04-24 23:58 | 44.83098 | -68.85651 | 2336 ft | 189 kts | 325° |
| 2026-04-24 23:58 | 44.84099 | -68.86789 | 3318 ft | 189 kts | 326° |
| 2026-04-24 23:58 | 44.85140 | -68.87952 | 4135 ft | 197 kts | 326° |
| 2026-04-24 23:58 | 44.86227 | -68.89153 | 4977 ft | 202 kts | 326° |
| 2026-04-24 23:59 | 44.87304 | -68.90420 | 5834 ft | 208 kts | 314° |
| 2026-04-24 23:59 | 44.87996 | -68.92348 | 6399 ft | 240 kts | 283° |
| 2026-04-24 23:59 | 44.87881 | -68.94795 | 7048 ft | 268 kts | 253° |
| 2026-04-24 23:59 | 44.86900 | -68.97068 | 7864 ft | 286 kts | 226° |
| 2026-04-25 00:00 | 44.85329 | -68.98859 | 8723 ft | 300 kts | 215° |
| 2026-04-25 00:00 | 44.83575 | -69.00559 | 9559 ft | 310 kts | 218° |
| 2026-04-25 00:00 | 44.81936 | -69.02528 | 9836 ft | 314 kts | 227° |
| 2026-04-25 00:00 | 44.80476 | -69.04871 | 10109 ft | 321 kts | 236° |
| 2026-04-25 00:01 | 44.79163 | -69.07431 | 10958 ft | 337 kts | 239° |
| 2026-04-25 00:01 | 44.77810 | -69.10278 | 11472 ft | 365 kts | 240° |
| 2026-04-25 00:01 | 44.76378 | -69.13316 | 12323 ft | 382 kts | 240° |
| 2026-04-25 00:01 | 44.74875 | -69.16438 | 13299 ft | 393 kts | 240° |
| 2026-04-25 00:02 | 44.74312 | -69.17595 | 13633 ft | 397 kts | 240° |
| 2026-04-25 00:02 | 44.72751 | -69.20782 | 14654 ft | 405 kts | 239° |
| 2026-04-25 00:02 | 44.71134 | -69.24075 | 15714 ft | 411 kts | 240° |
| 2026-04-25 00:02 | 44.69517 | -69.27361 | 16798 ft | 416 kts | 241° |
| 2026-04-25 00:03 | 44.67872 | -69.30722 | 17867 ft | 420 kts | 241° |
| 2026-04-25 00:03 | 44.66229 | -69.34087 | 18860 ft | 425 kts | 242° |
| 2026-04-25 00:03 | 44.64562 | -69.37511 | 19831 ft | 429 kts | 243° |
| 2026-04-25 00:03 | 44.62882 | -69.40974 | 20806 ft | 433 kts | 243° |
| 2026-04-25 00:04 | 44.61189 | -69.44469 | 21752 ft | 438 kts | 243° |
| 2026-04-25 00:04 | 44.59487 | -69.47986 | 22601 ft | 443 kts | 243° |
| 2026-04-25 00:04 | 44.57758 | -69.51543 | 23453 ft | 448 kts | 244° |
| 2026-04-25 00:04 | 44.56012 | -69.55151 | 24343 ft | 451 kts | 244° |
| 2026-04-25 00:05 | 44.54262 | -69.58781 | 25166 ft | 456 kts | 244° |
| 2026-04-25 00:05 | 44.52464 | -69.62503 | 26004 ft | 460 kts | 244° |
| 2026-04-25 00:05 | 44.50668 | -69.66219 | 26801 ft | 465 kts | 243° |
| 2026-04-25 00:05 | 44.48826 | -69.70027 | 27572 ft | 470 kts | 244° |
| 2026-04-25 00:06 | 44.47004 | -69.73814 | 28338 ft | 474 kts | 243° |
| 2026-04-25 00:06 | 44.45133 | -69.77693 | 29111 ft | 478 kts | 244° |
| 2026-04-25 00:06 | 44.43285 | -69.81552 | 29766 ft | 482 kts | 245° |
| 2026-04-25 00:06 | 44.41542 | -69.85541 | 30401 ft | 483 kts | 248° |
| 2026-04-25 00:07 | 44.39997 | -69.89646 | 31206 ft | 477 kts | 252° |
| 2026-04-25 00:07 | 44.38625 | -69.93835 | 31710 ft | 471 kts | 255° |
| 2026-04-25 00:07 | 44.37337 | -69.97993 | 31844 ft | 468 kts | 255° |
| 2026-04-25 00:07 | 44.36048 | -70.02135 | 31885 ft | 468 kts | 255° |
| 2026-04-25 00:08 | 44.33414 | -70.10421 | 31944 ft | 469 kts | 255° |
| 2026-04-25 00:08 | 44.30731 | -70.18758 | 31967 ft | 469 kts | 255° |
| 2026-04-25 00:09 | 44.28088 | -70.26967 | 31978 ft | 468 kts | 255° |
| 2026-04-25 00:09 | 44.25431 | -70.35260 | 31979 ft | 466 kts | 255° |
| 2026-04-25 00:10 | 44.22809 | -70.43481 | 31981 ft | 466 kts | 256° |
| 2026-04-25 00:10 | 44.20186 | -70.51709 | 31982 ft | 465 kts | 256° |
| 2026-04-25 00:11 | 44.17587 | -70.59909 | 31975 ft | 465 kts | 256° |
| 2026-04-25 00:11 | 44.14975 | -70.68168 | 31978 ft | 465 kts | 256° |
| 2026-04-25 00:12 | 44.12396 | -70.76368 | 31976 ft | 465 kts | 256° |
| 2026-04-25 00:12 | 44.09812 | -70.84561 | 31977 ft | 464 kts | 257° |
| 2026-04-25 00:13 | 44.07246 | -70.92784 | 31979 ft | 465 kts | 257° |
| 2026-04-25 00:13 | 44.04652 | -71.01022 | 31977 ft | 465 kts | 257° |
| 2026-04-25 00:14 | 44.01955 | -71.09177 | 31978 ft | 465 kts | 255° |
| 2026-04-25 00:14 | 43.99235 | -71.17265 | 31980 ft | 465 kts | 255° |
| 2026-04-25 00:15 | 43.96525 | -71.25391 | 31979 ft | 465 kts | 256° |
| 2026-04-25 00:15 | 43.93840 | -71.33491 | 31969 ft | 463 kts | 256° |
| 2026-04-25 00:16 | 43.91149 | -71.41624 | 31960 ft | 463 kts | 256° |
| 2026-04-25 00:16 | 43.88488 | -71.49696 | 31953 ft | 463 kts | 256° |
| 2026-04-25 00:17 | 43.85815 | -71.57812 | 31951 ft | 463 kts | 256° |
| 2026-04-25 00:17 | 43.83155 | -71.65916 | 31953 ft | 465 kts | 255° |
| 2026-04-25 00:18 | 43.80491 | -71.74040 | 31968 ft | 465 kts | 255° |
| 2026-04-25 00:18 | 43.77833 | -71.82167 | 31965 ft | 462 kts | 256° |
| 2026-04-25 00:19 | 43.75204 | -71.90239 | 31966 ft | 462 kts | 255° |
| 2026-04-25 00:19 | 43.72587 | -71.98315 | 31972 ft | 462 kts | 257° |
| 2026-04-25 00:20 | 43.70092 | -72.06477 | 31970 ft | 463 kts | 256° |
| 2026-04-25 00:20 | 43.67482 | -72.14573 | 31972 ft | 462 kts | 255° |
| 2026-04-25 00:21 | 43.64833 | -72.22662 | 31989 ft | 463 kts | 255° |
| 2026-04-25 00:21 | 43.62208 | -72.30713 | 31988 ft | 463 kts | 255° |
| 2026-04-25 00:22 | 43.59579 | -72.38816 | 31989 ft | 462 kts | 255° |
| 2026-04-25 00:22 | 43.56959 | -72.46907 | 31988 ft | 462 kts | 255° |
| 2026-04-25 00:23 | 43.54358 | -72.54967 | 31987 ft | 463 kts | 255° |
| 2026-04-25 00:23 | 43.51768 | -72.63013 | 31982 ft | 462 kts | 255° |
| 2026-04-25 00:24 | 43.49162 | -72.71127 | 31984 ft | 462 kts | 255° |
| 2026-04-25 00:24 | 43.46601 | -72.79133 | 31978 ft | 461 kts | 255° |
| 2026-04-25 00:25 | 43.44005 | -72.87238 | 31982 ft | 462 kts | 255° |
| 2026-04-25 00:25 | 43.41444 | -72.95286 | 31981 ft | 462 kts | 255° |
| 2026-04-25 00:26 | 43.38863 | -73.03374 | 31973 ft | 463 kts | 255° |
| 2026-04-25 00:26 | 43.36209 | -73.11352 | 31969 ft | 463 kts | 254° |
| 2026-04-25 00:27 | 43.33510 | -73.19382 | 31972 ft | 461 kts | 255° |
| 2026-04-25 00:27 | 43.30880 | -73.27335 | 31970 ft | 461 kts | 255° |
| 2026-04-25 00:28 | 43.28207 | -73.35362 | 31974 ft | 461 kts | 255° |
| 2026-04-25 00:28 | 43.25585 | -73.43329 | 31976 ft | 460 kts | 255° |
| 2026-04-25 00:29 | 43.22943 | -73.51273 | 31982 ft | 460 kts | 256° |
| 2026-04-25 00:29 | 43.19471 | -73.58804 | 31993 ft | 484 kts | 237° |
| 2026-04-25 00:30 | 43.16963 | -73.61912 | 31990 ft | 499 kts | 226° |
| 2026-04-25 00:30 | 43.13948 | -73.64449 | 31995 ft | 514 kts | 215° |
| 2026-04-25 00:30 | 43.10599 | -73.66250 | 31998 ft | 526 kts | 204° |
| 2026-04-25 00:30 | 43.07005 | -73.67472 | 32002 ft | 534 kts | 199° |
| 2026-04-25 00:31 | 42.99754 | -73.69806 | 31986 ft | 535 kts | 203° |
| 2026-04-25 00:31 | 42.92690 | -73.72672 | 31987 ft | 531 kts | 206° |
| 2026-04-25 00:32 | 42.85625 | -73.75729 | 31974 ft | 533 kts | 205° |
| 2026-04-25 00:32 | 42.78534 | -73.78706 | 31970 ft | 534 kts | 206° |
| 2026-04-25 00:33 | 42.71495 | -73.81737 | 31978 ft | 530 kts | 208° |
| 2026-04-25 00:33 | 42.64537 | -73.84996 | 31980 ft | 531 kts | 208° |
| 2026-04-25 00:34 | 42.57536 | -73.88117 | 31966 ft | 532 kts | 207° |
| 2026-04-25 00:34 | 42.50496 | -73.91206 | 31970 ft | 532 kts | 207° |
| 2026-04-25 00:35 | 42.43471 | -73.94336 | 31954 ft | 531 kts | 207° |
| 2026-04-25 00:35 | 42.36435 | -73.97437 | 31966 ft | 532 kts | 207° |
| 2026-04-25 00:36 | 42.29449 | -74.00540 | 31965 ft | 532 kts | 208° |
| 2026-04-25 00:36 | 42.22440 | -74.03642 | 31736 ft | 526 kts | 207° |
| 2026-04-25 00:37 | 42.18949 | -74.05230 | 30824 ft | 529 kts | 208° |
| 2026-04-25 00:37 | 42.15472 | -74.06818 | 30090 ft | 529 kts | 207° |
| 2026-04-25 00:37 | 42.12000 | -74.08343 | 29228 ft | 533 kts | 206° |
| 2026-04-25 00:37 | 42.08455 | -74.09847 | 28512 ft | 531 kts | 205° |
| 2026-04-25 00:38 | 42.04953 | -74.11330 | 27661 ft | 532 kts | 206° |
| 2026-04-25 00:38 | 42.01445 | -74.12891 | 26918 ft | 529 kts | 206° |
| 2026-04-25 00:38 | 41.97967 | -74.14465 | 26029 ft | 530 kts | 206° |
| 2026-04-25 00:38 | 41.94471 | -74.16010 | 25312 ft | 527 kts | 206° |
| 2026-04-25 00:39 | 41.91025 | -74.17487 | 24635 ft | 523 kts | 205° |
| 2026-04-25 00:39 | 41.87570 | -74.18964 | 23920 ft | 519 kts | 206° |
| 2026-04-25 00:39 | 41.84153 | -74.20449 | 23330 ft | 511 kts | 206° |
| 2026-04-25 00:39 | 41.80815 | -74.21944 | 22781 ft | 503 kts | 206° |
| 2026-04-25 00:40 | 41.77539 | -74.23399 | 22212 ft | 498 kts | 206° |
| 2026-04-25 00:40 | 41.74249 | -74.24838 | 21563 ft | 493 kts | 205° |
| 2026-04-25 00:40 | 41.71001 | -74.26224 | 20881 ft | 490 kts | 205° |
| 2026-04-25 00:40 | 41.67772 | -74.27591 | 20259 ft | 485 kts | 204° |
| 2026-04-25 00:41 | 41.64584 | -74.28966 | 19544 ft | 481 kts | 205° |
| 2026-04-25 00:41 | 41.61427 | -74.30362 | 19000 ft | 475 kts | 205° |
| 2026-04-25 00:41 | 41.58319 | -74.31727 | 18355 ft | 474 kts | 204° |
| 2026-04-25 00:41 | 41.55192 | -74.33058 | 17669 ft | 473 kts | 204° |
| 2026-04-25 00:42 | 41.52045 | -74.34398 | 16957 ft | 469 kts | 205° |
| 2026-04-25 00:42 | 41.49018 | -74.35724 | 16183 ft | 458 kts | 205° |
| 2026-04-25 00:42 | 41.46020 | -74.37033 | 15512 ft | 445 kts | 205° |
| 2026-04-25 00:42 | 41.43114 | -74.38271 | 14830 ft | 434 kts | 205° |
| 2026-04-25 00:43 | 41.40309 | -74.39462 | 14542 ft | 412 kts | 205° |
| 2026-04-25 00:43 | 41.37677 | -74.40597 | 14377 ft | 390 kts | 206° |
| 2026-04-25 00:43 | 41.35145 | -74.41692 | 14262 ft | 370 kts | 206° |
| 2026-04-25 00:43 | 41.32772 | -74.42716 | 14140 ft | 352 kts | 206° |
| 2026-04-25 00:44 | 41.30450 | -74.43715 | 13521 ft | 353 kts | 206° |
| 2026-04-25 00:44 | 41.28093 | -74.44736 | 12753 ft | 358 kts | 206° |
| 2026-04-25 00:44 | 41.25747 | -74.45773 | 11940 ft | 362 kts | 206° |
| 2026-04-25 00:44 | 41.23355 | -74.46820 | 11136 ft | 365 kts | 205° |
| 2026-04-25 00:45 | 41.20942 | -74.47840 | 10302 ft | 367 kts | 205° |
| 2026-04-25 00:45 | 41.18504 | -74.48859 | 9507 ft | 368 kts | 204° |
| 2026-04-25 00:45 | 41.16072 | -74.49885 | 8841 ft | 362 kts | 204° |
| 2026-04-25 00:45 | 41.13762 | -74.50849 | 8815 ft | 339 kts | 204° |
| 2026-04-25 00:46 | 41.11565 | -74.51777 | 8732 ft | 321 kts | 204° |
| 2026-04-25 00:46 | 41.09476 | -74.52669 | 8505 ft | 309 kts | 204° |
| 2026-04-25 00:46 | 41.05484 | -74.54000 | 8220 ft | 291 kts | 194° |
| 2026-04-25 00:47 | 41.03463 | -74.54274 | 7978 ft | 293 kts | 189° |
| 2026-04-25 00:47 | 41.01419 | -74.54412 | 7762 ft | 285 kts | 187° |
| 2026-04-25 00:47 | 40.99499 | -74.54503 | 7549 ft | 270 kts | 188° |
| 2026-04-25 00:47 | 40.97651 | -74.54620 | 7374 ft | 260 kts | 188° |
| 2026-04-25 00:48 | 40.95878 | -74.54768 | 7226 ft | 250 kts | 189° |
| 2026-04-25 00:48 | 40.94170 | -74.54940 | 7109 ft | 245 kts | 189° |
| 2026-04-25 00:48 | 40.92475 | -74.55120 | 6998 ft | 245 kts | 189° |
| 2026-04-25 00:48 | 40.90771 | -74.55299 | 6845 ft | 245 kts | 189° |
| 2026-04-25 00:49 | 40.89084 | -74.55464 | 6692 ft | 243 kts | 189° |
| 2026-04-25 00:49 | 40.87383 | -74.55617 | 6520 ft | 241 kts | 188° |
| 2026-04-25 00:49 | 40.85719 | -74.55767 | 6433 ft | 238 kts | 188° |
| 2026-04-25 00:49 | 40.84061 | -74.55910 | 6285 ft | 240 kts | 188° |
| 2026-04-25 00:50 | 40.82377 | -74.55982 | 6129 ft | 239 kts | 184° |
| 2026-04-25 00:50 | 40.80714 | -74.55948 | 5971 ft | 240 kts | 181° |
| 2026-04-25 00:50 | 40.79068 | -74.55846 | 5801 ft | 235 kts | 180° |
| 2026-04-25 00:50 | 40.77462 | -74.55727 | 5666 ft | 221 kts | 180° |
| 2026-04-25 00:51 | 40.75958 | -74.55624 | 5552 ft | 213 kts | 181° |
| 2026-04-25 00:51 | 40.74509 | -74.55544 | 5431 ft | 208 kts | 181° |
| 2026-04-25 00:51 | 40.73066 | -74.55475 | 5331 ft | 208 kts | 181° |
| 2026-04-25 00:51 | 40.71625 | -74.55409 | 5209 ft | 207 kts | 181° |
| 2026-04-25 00:52 | 40.70175 | -74.55338 | 5107 ft | 207 kts | 181° |
| 2026-04-25 00:52 | 40.68740 | -74.55261 | 4984 ft | 207 kts | 181° |
| 2026-04-25 00:52 | 40.67298 | -74.55180 | 4864 ft | 206 kts | 180° |
| 2026-04-25 00:52 | 40.65866 | -74.55103 | 4769 ft | 205 kts | 180° |
| 2026-04-25 00:53 | 40.64472 | -74.54727 | 4655 ft | 205 kts | 158° |
| 2026-04-25 00:53 | 40.63266 | -74.53719 | 4554 ft | 207 kts | 139° |
| 2026-04-25 00:53 | 40.62210 | -74.52427 | 4407 ft | 206 kts | 138° |
| 2026-04-25 00:53 | 40.61100 | -74.51227 | 4296 ft | 205 kts | 143° |
| 2026-04-25 00:54 | 40.59951 | -74.50152 | 4175 ft | 204 kts | 146° |
| 2026-04-25 00:54 | 40.58758 | -74.49124 | 4059 ft | 203 kts | 147° |
| 2026-04-25 00:54 | 40.57581 | -74.48132 | 3944 ft | 202 kts | 147° |
| 2026-04-25 00:54 | 40.56419 | -74.47134 | 3814 ft | 195 kts | 146° |
| 2026-04-25 00:55 | 40.55315 | -74.46168 | 3710 ft | 185 kts | 145° |
| 2026-04-25 00:55 | 40.54289 | -74.45258 | 3626 ft | 175 kts | 145° |
| 2026-04-25 00:55 | 40.53289 | -74.44372 | 3558 ft | 170 kts | 145° |
| 2026-04-25 00:55 | 40.52302 | -74.43495 | 3498 ft | 170 kts | 145° |
| 2026-04-25 00:56 | 40.51319 | -74.42628 | 3417 ft | 171 kts | 145° |
| 2026-04-25 00:56 | 40.50334 | -74.41765 | 3323 ft | 170 kts | 145° |
| 2026-04-25 00:56 | 40.49368 | -74.40835 | 3196 ft | 170 kts | 135° |
| 2026-04-25 00:56 | 40.48792 | -74.39555 | 3138 ft | 162 kts | 98° |
| 2026-04-25 00:57 | 40.48910 | -74.38113 | 3160 ft | 161 kts | 69° |
| 2026-04-25 00:57 | 40.49325 | -74.36747 | 3026 ft | 161 kts | 66° |
| 2026-04-25 00:57 | 40.49740 | -74.35391 | 2971 ft | 160 kts | 70° |
| 2026-04-25 00:57 | 40.50102 | -74.34013 | 2930 ft | 160 kts | 72° |
| 2026-04-25 00:58 | 40.50419 | -74.32620 | 2877 ft | 159 kts | 74° |
| 2026-04-25 00:58 | 40.50716 | -74.31200 | 2850 ft | 160 kts | 75° |
| 2026-04-25 00:58 | 40.51004 | -74.29803 | 2787 ft | 159 kts | 75° |
| 2026-04-25 00:58 | 40.51319 | -74.28401 | 2744 ft | 159 kts | 68° |
| 2026-04-25 00:59 | 40.51982 | -74.27295 | 2774 ft | 155 kts | 32° |
| 2026-04-25 00:59 | 40.52969 | -74.26654 | 2778 ft | 160 kts | 23° |
| 2026-04-25 00:59 | 40.53995 | -74.26110 | 2729 ft | 159 kts | 24° |
| 2026-04-25 00:59 | 40.55014 | -74.25538 | 2698 ft | 159 kts | 25° |
| 2026-04-25 01:00 | 40.56023 | -74.24929 | 2581 ft | 159 kts | 27° |
| 2026-04-25 01:00 | 40.57014 | -74.24305 | 2377 ft | 157 kts | 28° |
| 2026-04-25 01:00 | 40.57991 | -74.23673 | 2179 ft | 155 kts | 29° |
| 2026-04-25 01:00 | 40.58960 | -74.23045 | 1978 ft | 154 kts | 29° |
| 2026-04-25 01:01 | 40.59925 | -74.22423 | 1783 ft | 154 kts | 29° |
| 2026-04-25 01:01 | 40.60887 | -74.21807 | 1565 ft | 156 kts | 29° |
| 2026-04-25 01:01 | 40.61854 | -74.21183 | 1371 ft | 156 kts | 28° |
| 2026-04-25 01:01 | 40.62833 | -74.20555 | 1162 ft | 157 kts | 28° |
| 2026-04-25 01:02 | 40.63823 | -74.19932 | 951 ft | 157 kts | 28° |
| 2026-04-25 01:02 | 40.64800 | -74.19315 | 749 ft | 156 kts | 28° |
| 2026-04-25 01:02 | 40.65786 | -74.18690 | 542 ft | 157 kts | 28° |
| 2026-04-25 01:02 | 40.66760 | -74.18070 | 339 ft | 157 kts | 28° |
| 2026-04-25 01:03 | 40.67750 | -74.17429 | 106 ft | 160 kts | 29° |
| 2026-04-25 01:03 | 40.68688 | -74.16829 | 19 ft | 106 kts | 26° |
| 2026-04-25 01:03 | 40.69003 | -74.16631 | 19 ft | 37 kts | 20° |
| 2026-04-25 01:03 | 40.69216 | -74.16592 | 19 ft | 21 kts | 355° |
| 2026-04-25 01:04 | 40.69296 | -74.16602 | 19 ft | 0 kts | 354° |
| 2026-04-25 01:04 | 40.69331 | -74.16606 | 19 ft | 15 kts | 355° |
| 2026-04-25 01:04 | 40.69446 | -74.16576 | 19 ft | 18 kts | 25° |
| 2026-04-25 01:05 | 40.69548 | -74.16509 | 19 ft | 7 kts | 16° |
| 2026-04-25 01:05 | 40.69552 | -74.16508 | 19 ft | 0 kts | 13° |
| 2026-04-25 01:05 | 40.69553 | -74.16508 | 19 ft | 1 kts | 12° |
| 2026-04-25 01:06 | 40.69598 | -74.16524 | 19 ft | 17 kts | 322° |
| 2026-04-25 01:06 | 40.69675 | -74.16743 | 19 ft | 25 kts | 267° |
| 2026-04-25 01:06 | 40.69624 | -74.16897 | 19 ft | 17 kts | 218° |
| 2026-04-25 01:06 | 40.69463 | -74.17008 | 19 ft | 25 kts | 206° |
| 2026-04-25 01:07 | 40.69290 | -74.17117 | 19 ft | 29 kts | 205° |
| 2026-04-25 01:07 | 40.69099 | -74.17238 | 19 ft | 32 kts | 205° |
| 2026-04-25 01:07 | 40.68888 | -74.17372 | 19 ft | 34 kts | 206° |
| 2026-04-25 01:07 | 40.68660 | -74.17518 | 19 ft | 37 kts | 206° |
| 2026-04-25 01:08 | 40.68420 | -74.17667 | 19 ft | 34 kts | 205° |
| 2026-04-25 01:08 | 40.68225 | -74.17793 | 19 ft | 32 kts | 206° |
| 2026-04-25 01:08 | 40.68051 | -74.17901 | 19 ft | 24 kts | 207° |
| 2026-04-25 01:08 | 40.67902 | -74.17998 | 19 ft | 20 kts | 213° |
| 2026-04-25 01:09 | 40.67912 | -74.18144 | 19 ft | 14 kts | 307° |
| 2026-04-25 01:09 | 40.67942 | -74.18211 | 19 ft | 0 kts | 296° |
| 2026-04-25 01:09 | 40.67942 | -74.18214 | 19 ft | 1 kts | 297° |
| 2026-04-25 01:09 | 40.67948 | -74.18228 | 19 ft | 2 kts | 298° |
| 2026-04-25 01:10 | 40.67950 | -74.18232 | 19 ft | 0 kts | 298° |